sensor_id;sensor_type;location;lat;lon;timestamp;temperature;humidity
66522;SHT31;53349;53.538;8.584;2023-11-21T00:00:46;9.91;90.15
66522;SHT31;53349;53.538;8.584;2023-11-21T00:03:12;9.93;90.20
66522;SHT31;53349;53.538;8.584;2023-11-21T00:05:41;9.93;90.14
66522;SHT31;53349;53.538;8.584;2023-11-21T00:08:10;9.91;90.07
66522;SHT31;53349;53.538;8.584;2023-11-21T00:10:38;9.96;90.00
66522;SHT31;53349;53.538;8.584;2023-11-21T00:13:04;9.94;89.96
66522;SHT31;53349;53.538;8.584;2023-11-21T00:15:30;9.94;89.91
66522;SHT31;53349;53.538;8.584;2023-11-21T00:17:55;9.86;89.69
66522;SHT31;53349;53.538;8.584;2023-11-21T00:20:22;9.82;89.85
66522;SHT31;53349;53.538;8.584;2023-11-21T00:22:47;9.84;89.90
66522;SHT31;53349;53.538;8.584;2023-11-21T00:25:14;9.87;89.81
66522;SHT31;53349;53.538;8.584;2023-11-21T00:27:41;9.86;89.66
66522;SHT31;53349;53.538;8.584;2023-11-21T00:30:07;9.86;89.71
66522;SHT31;53349;53.538;8.584;2023-11-21T00:32:32;9.82;89.58
66522;SHT31;53349;53.538;8.584;2023-11-21T00:34:59;9.79;89.63
66522;SHT31;53349;53.538;8.584;2023-11-21T00:37:24;9.76;89.54
66522;SHT31;53349;53.538;8.584;2023-11-21T00:39:50;9.73;89.57
66522;SHT31;53349;53.538;8.584;2023-11-21T00:42:16;9.70;89.63
66522;SHT31;53349;53.538;8.584;2023-11-21T00:44:42;9.67;89.63
66522;SHT31;53349;53.538;8.584;2023-11-21T00:47:09;9.66;89.53
66522;SHT31;53349;53.538;8.584;2023-11-21T00:49:34;9.63;89.49
66522;SHT31;53349;53.538;8.584;2023-11-21T00:52:00;9.63;89.55
66522;SHT31;53349;53.538;8.584;2023-11-21T00:54:27;9.62;89.51
66522;SHT31;53349;53.538;8.584;2023-11-21T00:56:56;9.59;89.46
66522;SHT31;53349;53.538;8.584;2023-11-21T00:59:22;9.62;89.68
66522;SHT31;53349;53.538;8.584;2023-11-21T01:01:49;9.60;89.69
66522;SHT31;53349;53.538;8.584;2023-11-21T01:04:16;9.57;89.67
66522;SHT31;53349;53.538;8.584;2023-11-21T01:06:42;9.59;89.63
66522;SHT31;53349;53.538;8.584;2023-11-21T01:09:09;9.57;89.74
66522;SHT31;53349;53.538;8.584;2023-11-21T01:11:35;9.55;89.73
66522;SHT31;53349;53.538;8.584;2023-11-21T01:14:00;9.52;89.50
66522;SHT31;53349;53.538;8.584;2023-11-21T01:16:29;9.49;89.56
66522;SHT31;53349;53.538;8.584;2023-11-21T01:18:54;9.42;89.37
66522;SHT31;53349;53.538;8.584;2023-11-21T01:21:22;9.42;89.45
66522;SHT31;53349;53.538;8.584;2023-11-21T01:23:49;9.35;89.47
66522;SHT31;53349;53.538;8.584;2023-11-21T01:26:18;9.34;89.45
66522;SHT31;53349;53.538;8.584;2023-11-21T01:28:44;9.34;89.38
66522;SHT31;53349;53.538;8.584;2023-11-21T01:31:10;9.34;89.38
66522;SHT31;53349;53.538;8.584;2023-11-21T01:33:35;9.32;89.22
66522;SHT31;53349;53.538;8.584;2023-11-21T01:36:00;9.34;89.25
66522;SHT31;53349;53.538;8.584;2023-11-21T01:38:27;9.32;89.30
66522;SHT31;53349;53.538;8.584;2023-11-21T01:40:53;9.34;89.46
66522;SHT31;53349;53.538;8.584;2023-11-21T01:43:18;9.28;88.97
66522;SHT31;53349;53.538;8.584;2023-11-21T01:45:43;9.29;89.23
66522;SHT31;53349;53.538;8.584;2023-11-21T01:48:09;9.24;88.96
66522;SHT31;53349;53.538;8.584;2023-11-21T01:50:35;9.22;89.14
66522;SHT31;53349;53.538;8.584;2023-11-21T01:53:02;9.19;89.14
66522;SHT31;53349;53.538;8.584;2023-11-21T01:55:28;9.19;88.88
66522;SHT31;53349;53.538;8.584;2023-11-21T01:57:55;9.21;88.97
66522;SHT31;53349;53.538;8.584;2023-11-21T02:00:20;9.18;88.78
66522;SHT31;53349;53.538;8.584;2023-11-21T02:02:47;9.14;88.78
66522;SHT31;53349;53.538;8.584;2023-11-21T02:05:18;9.11;88.58
66522;SHT31;53349;53.538;8.584;2023-11-21T02:07:47;9.05;88.63
66522;SHT31;53349;53.538;8.584;2023-11-21T02:10:12;9.01;88.47
66522;SHT31;53349;53.538;8.584;2023-11-21T02:12:38;9.04;88.46
66522;SHT31;53349;53.538;8.584;2023-11-21T02:15:03;9.00;88.22
66522;SHT31;53349;53.538;8.584;2023-11-21T02:17:29;9.00;88.24
66522;SHT31;53349;53.538;8.584;2023-11-21T02:19:56;8.97;88.27
66522;SHT31;53349;53.538;8.584;2023-11-21T02:22:23;8.91;88.18
66522;SHT31;53349;53.538;8.584;2023-11-21T02:24:50;8.91;88.09
66522;SHT31;53349;53.538;8.584;2023-11-21T02:27:18;8.83;88.07
66522;SHT31;53349;53.538;8.584;2023-11-21T02:29:44;8.87;88.20
66522;SHT31;53349;53.538;8.584;2023-11-21T02:32:09;8.85;87.81
66522;SHT31;53349;53.538;8.584;2023-11-21T02:34:35;8.85;87.72
66522;SHT31;53349;53.538;8.584;2023-11-21T02:37:23;8.73;87.33
66522;SHT31;53349;53.538;8.584;2023-11-21T02:39:48;8.71;87.66
66522;SHT31;53349;53.538;8.584;2023-11-21T02:42:14;8.63;87.55
66522;SHT31;53349;53.538;8.584;2023-11-21T02:44:40;8.64;87.57
66522;SHT31;53349;53.538;8.584;2023-11-21T02:47:05;8.61;87.58
66522;SHT31;53349;53.538;8.584;2023-11-21T02:49:31;8.59;87.60
66522;SHT31;53349;53.538;8.584;2023-11-21T02:51:57;8.61;87.61
66522;SHT31;53349;53.538;8.584;2023-11-21T02:54:23;8.64;87.86
66522;SHT31;53349;53.538;8.584;2023-11-21T02:56:50;8.63;87.92
66522;SHT31;53349;53.538;8.584;2023-11-21T02:59:15;8.67;87.80
66522;SHT31;53349;53.538;8.584;2023-11-21T03:01:43;8.63;87.71
66522;SHT31;53349;53.538;8.584;2023-11-21T03:04:10;8.70;87.65
66522;SHT31;53349;53.538;8.584;2023-11-21T03:06:35;8.67;87.57
66522;SHT31;53349;53.538;8.584;2023-11-21T03:09:00;8.64;87.71
66522;SHT31;53349;53.538;8.584;2023-11-21T03:11:26;8.60;87.76
66522;SHT31;53349;53.538;8.584;2023-11-21T03:13:52;8.56;87.74
66522;SHT31;53349;53.538;8.584;2023-11-21T03:16:18;8.61;87.86
66522;SHT31;53349;53.538;8.584;2023-11-21T03:18:43;8.64;87.71
66522;SHT31;53349;53.538;8.584;2023-11-21T03:21:11;8.65;87.71
66522;SHT31;53349;53.538;8.584;2023-11-21T03:23:37;8.60;87.73
66522;SHT31;53349;53.538;8.584;2023-11-21T03:26:04;8.61;87.66
66522;SHT31;53349;53.538;8.584;2023-11-21T03:28:29;8.59;87.02
66522;SHT31;53349;53.538;8.584;2023-11-21T03:30:56;8.64;87.02
66522;SHT31;53349;53.538;8.584;2023-11-21T03:33:23;8.59;86.86
66522;SHT31;53349;53.538;8.584;2023-11-21T03:35:49;8.50;86.72
66522;SHT31;53349;53.538;8.584;2023-11-21T03:38:15;8.50;86.88
66522;SHT31;53349;53.538;8.584;2023-11-21T03:40:42;8.50;86.91
66522;SHT31;53349;53.538;8.584;2023-11-21T03:43:13;8.52;86.83
66522;SHT31;53349;53.538;8.584;2023-11-21T03:45:39;8.49;86.98
66522;SHT31;53349;53.538;8.584;2023-11-21T03:48:04;8.53;87.00
66522;SHT31;53349;53.538;8.584;2023-11-21T03:50:31;8.50;86.96
66522;SHT31;53349;53.538;8.584;2023-11-21T03:52:56;8.50;86.97
66522;SHT31;53349;53.538;8.584;2023-11-21T03:55:23;8.43;86.50
66522;SHT31;53349;53.538;8.584;2023-11-21T03:57:52;8.39;86.87
66522;SHT31;53349;53.538;8.584;2023-11-21T04:00:18;8.29;86.68
66522;SHT31;53349;53.538;8.584;2023-11-21T04:02:45;8.28;86.77
66522;SHT31;53349;53.538;8.584;2023-11-21T04:05:10;8.25;86.83
66522;SHT31;53349;53.538;8.584;2023-11-21T04:07:39;8.17;86.84
66522;SHT31;53349;53.538;8.584;2023-11-21T04:10:09;8.17;86.90
66522;SHT31;53349;53.538;8.584;2023-11-21T04:12:36;8.21;86.81
66522;SHT31;53349;53.538;8.584;2023-11-21T04:15:02;8.28;86.96
66522;SHT31;53349;53.538;8.584;2023-11-21T04:17:28;8.28;86.87
66522;SHT31;53349;53.538;8.584;2023-11-21T04:19:55;8.26;87.00
66522;SHT31;53349;53.538;8.584;2023-11-21T04:22:21;8.29;86.93
66522;SHT31;53349;53.538;8.584;2023-11-21T04:24:47;8.26;86.79
66522;SHT31;53349;53.538;8.584;2023-11-21T04:27:12;8.23;86.77
66522;SHT31;53349;53.538;8.584;2023-11-21T04:29:38;8.23;87.03
66522;SHT31;53349;53.538;8.584;2023-11-21T04:32:03;8.21;86.72
66522;SHT31;53349;53.538;8.584;2023-11-21T04:34:29;8.22;86.94
66522;SHT31;53349;53.538;8.584;2023-11-21T04:36:54;8.19;86.84
66522;SHT31;53349;53.538;8.584;2023-11-21T04:39:20;8.22;86.87
66522;SHT31;53349;53.538;8.584;2023-11-21T04:41:45;8.26;86.93
66522;SHT31;53349;53.538;8.584;2023-11-21T04:44:11;8.19;86.59
66522;SHT31;53349;53.538;8.584;2023-11-21T04:46:36;8.25;86.77
66522;SHT31;53349;53.538;8.584;2023-11-21T04:49:03;8.30;86.84
66522;SHT31;53349;53.538;8.584;2023-11-21T04:51:28;8.28;86.67
66522;SHT31;53349;53.538;8.584;2023-11-21T04:53:53;8.26;86.72
66522;SHT31;53349;53.538;8.584;2023-11-21T04:56:21;8.26;86.60
66522;SHT31;53349;53.538;8.584;2023-11-21T04:58:46;8.23;86.48
66522;SHT31;53349;53.538;8.584;2023-11-21T05:01:12;8.22;86.64
66522;SHT31;53349;53.538;8.584;2023-11-21T05:03:37;8.23;86.47
66522;SHT31;53349;53.538;8.584;2023-11-21T05:06:02;8.22;86.38
66522;SHT31;53349;53.538;8.584;2023-11-21T05:08:28;8.22;86.32
66522;SHT31;53349;53.538;8.584;2023-11-21T05:10:53;8.17;86.23
66522;SHT31;53349;53.538;8.584;2023-11-21T05:13:21;8.15;86.19
66522;SHT31;53349;53.538;8.584;2023-11-21T05:15:47;8.07;85.93
66522;SHT31;53349;53.538;8.584;2023-11-21T05:18:12;8.10;85.85
66522;SHT31;53349;53.538;8.584;2023-11-21T05:20:37;8.10;85.84
66522;SHT31;53349;53.538;8.584;2023-11-21T05:23:04;8.09;85.40
66522;SHT31;53349;53.538;8.584;2023-11-21T05:25:29;8.06;85.33
66522;SHT31;53349;53.538;8.584;2023-11-21T05:27:55;8.03;85.66
66522;SHT31;53349;53.538;8.584;2023-11-21T05:30:21;8.02;85.36
66522;SHT31;53349;53.538;8.584;2023-11-21T05:32:47;7.91;85.34
66522;SHT31;53349;53.538;8.584;2023-11-21T05:35:13;7.92;85.65
66522;SHT31;53349;53.538;8.584;2023-11-21T05:37:39;7.92;85.36
66522;SHT31;53349;53.538;8.584;2023-11-21T05:40:07;7.89;85.17
66522;SHT31;53349;53.538;8.584;2023-11-21T05:42:35;7.82;84.80
66522;SHT31;53349;53.538;8.584;2023-11-21T05:45:01;7.82;85.02
66522;SHT31;53349;53.538;8.584;2023-11-21T05:47:27;7.85;84.81
66522;SHT31;53349;53.538;8.584;2023-11-21T05:49:52;7.82;84.90
66522;SHT31;53349;53.538;8.584;2023-11-21T05:52:22;7.84;84.98
66522;SHT31;53349;53.538;8.584;2023-11-21T05:54:49;7.82;84.67
66522;SHT31;53349;53.538;8.584;2023-11-21T05:57:14;7.74;85.05
66522;SHT31;53349;53.538;8.584;2023-11-21T05:59:42;7.70;84.91
66522;SHT31;53349;53.538;8.584;2023-11-21T06:02:09;7.65;84.89
66522;SHT31;53349;53.538;8.584;2023-11-21T06:04:34;7.68;85.19
66522;SHT31;53349;53.538;8.584;2023-11-21T06:07:00;7.67;85.16
66522;SHT31;53349;53.538;8.584;2023-11-21T06:09:25;7.68;85.17
66522;SHT31;53349;53.538;8.584;2023-11-21T06:11:50;7.63;85.25
66522;SHT31;53349;53.538;8.584;2023-11-21T06:14:16;7.58;85.44
66522;SHT31;53349;53.538;8.584;2023-11-21T06:16:41;7.61;85.35
66522;SHT31;53349;53.538;8.584;2023-11-21T06:19:07;7.63;85.49
66522;SHT31;53349;53.538;8.584;2023-11-21T06:21:32;7.64;85.49
66522;SHT31;53349;53.538;8.584;2023-11-21T06:23:57;7.63;85.53
66522;SHT31;53349;53.538;8.584;2023-11-21T06:26:28;7.58;85.60
66522;SHT31;53349;53.538;8.584;2023-11-21T06:28:54;7.58;85.54
66522;SHT31;53349;53.538;8.584;2023-11-21T06:31:21;7.61;85.56
66522;SHT31;53349;53.538;8.584;2023-11-21T06:33:49;7.63;85.77
66522;SHT31;53349;53.538;8.584;2023-11-21T06:36:16;7.61;85.54
66522;SHT31;53349;53.538;8.584;2023-11-21T06:38:43;7.64;85.44
66522;SHT31;53349;53.538;8.584;2023-11-21T06:41:08;7.64;85.55
66522;SHT31;53349;53.538;8.584;2023-11-21T06:43:35;7.64;85.42
66522;SHT31;53349;53.538;8.584;2023-11-21T06:46:02;7.61;85.30
66522;SHT31;53349;53.538;8.584;2023-11-21T06:48:28;7.67;85.76
66522;SHT31;53349;53.538;8.584;2023-11-21T06:50:53;7.64;85.73
66522;SHT31;53349;53.538;8.584;2023-11-21T06:53:19;7.64;85.33
66522;SHT31;53349;53.538;8.584;2023-11-21T06:55:44;7.63;85.45
66522;SHT31;53349;53.538;8.584;2023-11-21T06:58:10;7.61;85.40
66522;SHT31;53349;53.538;8.584;2023-11-21T07:00:36;7.65;85.61
66522;SHT31;53349;53.538;8.584;2023-11-21T07:03:04;7.63;85.43
66522;SHT31;53349;53.538;8.584;2023-11-21T07:05:32;7.64;85.39
66522;SHT31;53349;53.538;8.584;2023-11-21T07:07:58;7.65;85.47
66522;SHT31;53349;53.538;8.584;2023-11-21T07:10:26;7.67;85.39
66522;SHT31;53349;53.538;8.584;2023-11-21T07:12:52;7.70;85.52
66522;SHT31;53349;53.538;8.584;2023-11-21T07:15:17;7.70;85.49
66522;SHT31;53349;53.538;8.584;2023-11-21T07:17:43;7.68;85.27
66522;SHT31;53349;53.538;8.584;2023-11-21T07:20:10;7.65;85.23
66522;SHT31;53349;53.538;8.584;2023-11-21T07:22:38;7.70;85.44
66522;SHT31;53349;53.538;8.584;2023-11-21T07:25:05;7.71;85.20
66522;SHT31;53349;53.538;8.584;2023-11-21T07:27:31;7.77;85.23
66522;SHT31;53349;53.538;8.584;2023-11-21T07:29:56;7.78;85.69
66522;SHT31;53349;53.538;8.584;2023-11-21T07:32:22;7.78;85.45
66522;SHT31;53349;53.538;8.584;2023-11-21T07:34:49;7.79;85.23
66522;SHT31;53349;53.538;8.584;2023-11-21T07:37:14;7.81;85.25
66522;SHT31;53349;53.538;8.584;2023-11-21T07:39:39;7.75;85.04
66522;SHT31;53349;53.538;8.584;2023-11-21T07:42:05;7.77;85.45
66522;SHT31;53349;53.538;8.584;2023-11-21T07:44:31;7.79;85.51
66522;SHT31;53349;53.538;8.584;2023-11-21T07:46:57;7.84;85.67
66522;SHT31;53349;53.538;8.584;2023-11-21T07:49:24;7.86;84.93
66522;SHT31;53349;53.538;8.584;2023-11-21T07:51:50;7.92;85.23
66522;SHT31;53349;53.538;8.584;2023-11-21T07:54:19;7.96;85.40
66522;SHT31;53349;53.538;8.584;2023-11-21T07:56:47;8.01;85.45
66522;SHT31;53349;53.538;8.584;2023-11-21T07:59:15;8.01;85.24
66522;SHT31;53349;53.538;8.584;2023-11-21T08:01:43;8.05;85.17
66522;SHT31;53349;53.538;8.584;2023-11-21T08:04:08;8.05;85.17
66522;SHT31;53349;53.538;8.584;2023-11-21T08:06:34;8.10;85.29
66522;SHT31;53349;53.538;8.584;2023-11-21T08:09:00;8.15;85.47
66522;SHT31;53349;53.538;8.584;2023-11-21T08:11:26;8.15;85.45
66522;SHT31;53349;53.538;8.584;2023-11-21T08:13:56;8.17;85.24
66522;SHT31;53349;53.538;8.584;2023-11-21T08:16:24;8.19;85.11
66522;SHT31;53349;53.538;8.584;2023-11-21T08:18:52;8.17;85.02
66522;SHT31;53349;53.538;8.584;2023-11-21T08:21:17;8.19;85.12
66522;SHT31;53349;53.538;8.584;2023-11-21T08:23:46;8.16;85.29
66522;SHT31;53349;53.538;8.584;2023-11-21T08:26:12;8.17;85.47
66522;SHT31;53349;53.538;8.584;2023-11-21T08:28:37;8.16;85.43
66522;SHT31;53349;53.538;8.584;2023-11-21T08:31:03;8.17;85.91
66522;SHT31;53349;53.538;8.584;2023-11-21T08:33:29;8.26;86.18
66522;SHT31;53349;53.538;8.584;2023-11-21T08:35:55;8.30;85.93
66522;SHT31;53349;53.538;8.584;2023-11-21T08:38:23;8.34;86.29
66522;SHT31;53349;53.538;8.584;2023-11-21T08:40:49;8.36;86.04
66522;SHT31;53349;53.538;8.584;2023-11-21T08:43:14;8.42;86.40
66522;SHT31;53349;53.538;8.584;2023-11-21T08:45:41;8.47;86.25
66522;SHT31;53349;53.538;8.584;2023-11-21T08:48:06;8.52;86.09
66522;SHT31;53349;53.538;8.584;2023-11-21T08:50:32;8.53;85.83
66522;SHT31;53349;53.538;8.584;2023-11-21T08:52:57;8.47;85.40
66522;SHT31;53349;53.538;8.584;2023-11-21T08:55:23;8.36;85.39
66522;SHT31;53349;53.538;8.584;2023-11-21T08:57:48;8.34;85.51
66522;SHT31;53349;53.538;8.584;2023-11-21T09:00:15;8.37;85.45
66522;SHT31;53349;53.538;8.584;2023-11-21T09:02:40;8.40;85.60
66522;SHT31;53349;53.538;8.584;2023-11-21T09:05:10;8.37;85.34
66522;SHT31;53349;53.538;8.584;2023-11-21T09:07:37;8.37;85.09
66522;SHT31;53349;53.538;8.584;2023-11-21T09:10:04;8.37;85.48
66522;SHT31;53349;53.538;8.584;2023-11-21T09:12:31;8.43;85.36
66522;SHT31;53349;53.538;8.584;2023-11-21T09:14:57;8.42;85.03
66522;SHT31;53349;53.538;8.584;2023-11-21T09:17:22;8.52;85.21
66522;SHT31;53349;53.538;8.584;2023-11-21T09:19:49;8.49;85.01
66522;SHT31;53349;53.538;8.584;2023-11-21T09:22:15;8.53;84.89
66522;SHT31;53349;53.538;8.584;2023-11-21T09:24:42;8.56;84.86
66522;SHT31;53349;53.538;8.584;2023-11-21T09:27:08;8.63;84.49
66522;SHT31;53349;53.538;8.584;2023-11-21T09:29:33;8.60;84.47
66522;SHT31;53349;53.538;8.584;2023-11-21T09:31:59;8.65;84.51
66522;SHT31;53349;53.538;8.584;2023-11-21T09:34:25;8.67;84.35
66522;SHT31;53349;53.538;8.584;2023-11-21T09:36:52;8.70;84.72
66522;SHT31;53349;53.538;8.584;2023-11-21T09:39:18;8.68;84.30
66522;SHT31;53349;53.538;8.584;2023-11-21T09:41:52;8.65;84.20
66522;SHT31;53349;53.538;8.584;2023-11-21T09:44:35;8.65;84.27
66522;SHT31;53349;53.538;8.584;2023-11-21T09:47:02;8.64;84.38
66522;SHT31;53349;53.538;8.584;2023-11-21T09:49:28;8.61;84.31
66522;SHT31;53349;53.538;8.584;2023-11-21T09:51:55;8.64;84.25
66522;SHT31;53349;53.538;8.584;2023-11-21T09:54:22;8.65;84.19
66522;SHT31;53349;53.538;8.584;2023-11-21T09:56:49;8.61;83.85
66522;SHT31;53349;53.538;8.584;2023-11-21T09:59:16;8.54;83.71
66522;SHT31;53349;53.538;8.584;2023-11-21T10:01:42;8.52;83.96
66522;SHT31;53349;53.538;8.584;2023-11-21T10:04:08;8.47;83.88
66522;SHT31;53349;53.538;8.584;2023-11-21T10:06:34;8.46;83.79
66522;SHT31;53349;53.538;8.584;2023-11-21T10:08:59;8.47;84.25
66522;SHT31;53349;53.538;8.584;2023-11-21T10:11:26;8.44;83.97
66522;SHT31;53349;53.538;8.584;2023-11-21T10:13:56;8.44;84.27
66522;SHT31;53349;53.538;8.584;2023-11-21T10:16:25;8.44;83.96
66522;SHT31;53349;53.538;8.584;2023-11-21T10:18:53;8.49;84.46
66522;SHT31;53349;53.538;8.584;2023-11-21T10:21:18;8.47;84.28
66522;SHT31;53349;53.538;8.584;2023-11-21T10:23:44;8.44;84.24
66522;SHT31;53349;53.538;8.584;2023-11-21T10:26:11;8.40;84.19
66522;SHT31;53349;53.538;8.584;2023-11-21T10:28:37;8.46;84.32
66522;SHT31;53349;53.538;8.584;2023-11-21T10:31:06;8.46;84.33
66522;SHT31;53349;53.538;8.584;2023-11-21T10:33:33;8.53;84.28
66522;SHT31;53349;53.538;8.584;2023-11-21T10:35:58;8.53;84.23
66522;SHT31;53349;53.538;8.584;2023-11-21T10:38:23;8.50;83.96
66522;SHT31;53349;53.538;8.584;2023-11-21T10:40:52;8.53;84.34
66522;SHT31;53349;53.538;8.584;2023-11-21T10:43:17;8.60;84.41
66522;SHT31;53349;53.538;8.584;2023-11-21T10:45:44;8.57;83.76
66522;SHT31;53349;53.538;8.584;2023-11-21T10:48:11;8.67;83.84
66522;SHT31;53349;53.538;8.584;2023-11-21T10:50:38;8.65;83.82
66522;SHT31;53349;53.538;8.584;2023-11-21T10:53:10;8.64;84.14
66522;SHT31;53349;53.538;8.584;2023-11-21T10:55:36;8.65;83.74
66522;SHT31;53349;53.538;8.584;2023-11-21T10:58:03;8.65;83.41
66522;SHT31;53349;53.538;8.584;2023-11-21T11:00:30;8.64;83.59
66522;SHT31;53349;53.538;8.584;2023-11-21T11:02:58;8.67;84.14
66522;SHT31;53349;53.538;8.584;2023-11-21T11:05:26;8.70;84.15
66522;SHT31;53349;53.538;8.584;2023-11-21T11:07:59;8.71;83.96
66522;SHT31;53349;53.538;8.584;2023-11-21T11:10:25;8.75;83.69
66522;SHT31;53349;53.538;8.584;2023-11-21T11:12:56;8.78;83.02
66522;SHT31;53349;53.538;8.584;2023-11-21T11:15:25;8.83;83.01
66522;SHT31;53349;53.538;8.584;2023-11-21T11:17:51;8.88;83.11
66522;SHT31;53349;53.538;8.584;2023-11-21T11:20:17;8.85;82.45
66522;SHT31;53349;53.538;8.584;2023-11-21T11:32:30;9.10;81.01
66522;SHT31;53349;53.538;8.584;2023-11-21T11:37:28;9.34;79.90
66522;SHT31;53349;53.538;8.584;2023-11-21T11:39:55;9.29;79.43
66522;SHT31;53349;53.538;8.584;2023-11-21T11:42:21;9.35;79.68
66522;SHT31;53349;53.538;8.584;2023-11-21T11:44:48;9.42;78.46
66522;SHT31;53349;53.538;8.584;2023-11-21T11:47:22;9.45;79.15
66522;SHT31;53349;53.538;8.584;2023-11-21T11:52:35;9.45;79.45
66522;SHT31;53349;53.538;8.584;2023-11-21T11:55:04;9.40;78.77
66522;SHT31;53349;53.538;8.584;2023-11-21T11:57:31;9.36;78.61
66522;SHT31;53349;53.538;8.584;2023-11-21T12:00:11;9.43;78.84
66522;SHT31;53349;53.538;8.584;2023-11-21T12:02:38;9.50;78.48
66522;SHT31;53349;53.538;8.584;2023-11-21T12:05:09;9.53;78.35
66522;SHT31;53349;53.538;8.584;2023-11-21T12:07:55;9.56;78.20
66522;SHT31;53349;53.538;8.584;2023-11-21T12:10:26;9.49;77.98
66522;SHT31;53349;53.538;8.584;2023-11-21T12:13:00;9.35;76.75
66522;SHT31;53349;53.538;8.584;2023-11-21T12:15:27;9.29;76.44
66522;SHT31;53349;53.538;8.584;2023-11-21T12:17:53;9.25;77.00
66522;SHT31;53349;53.538;8.584;2023-11-21T12:20:19;9.19;76.97
66522;SHT31;53349;53.538;8.584;2023-11-21T12:22:55;9.12;76.72
66522;SHT31;53349;53.538;8.584;2023-11-21T12:25:26;9.14;76.98
66522;SHT31;53349;53.538;8.584;2023-11-21T12:27:52;9.16;77.00
66522;SHT31;53349;53.538;8.584;2023-11-21T12:30:20;9.19;77.01
66522;SHT31;53349;53.538;8.584;2023-11-21T12:32:51;9.14;75.99
66522;SHT31;53349;53.538;8.584;2023-11-21T12:35:19;9.08;76.50
66522;SHT31;53349;53.538;8.584;2023-11-21T12:37:45;9.04;76.92
66522;SHT31;53349;53.538;8.584;2023-11-21T12:40:11;9.08;77.27
66522;SHT31;53349;53.538;8.584;2023-11-21T12:42:39;9.11;77.68
66522;SHT31;53349;53.538;8.584;2023-11-21T12:47:58;9.11;77.92
66522;SHT31;53349;53.538;8.584;2023-11-21T12:50:28;9.18;77.87
66522;SHT31;53349;53.538;8.584;2023-11-21T12:53:00;9.18;77.44
66522;SHT31;53349;53.538;8.584;2023-11-21T12:55:25;9.21;76.87
66522;SHT31;53349;53.538;8.584;2023-11-21T12:57:54;9.14;76.55
66522;SHT31;53349;53.538;8.584;2023-11-21T13:00:28;9.12;75.78
66522;SHT31;53349;53.538;8.584;2023-11-21T13:02:58;9.16;76.23
66522;SHT31;53349;53.538;8.584;2023-11-21T13:05:25;9.12;76.17
66522;SHT31;53349;53.538;8.584;2023-11-21T13:07:51;9.03;76.68
66522;SHT31;53349;53.538;8.584;2023-11-21T13:10:18;8.94;76.60
66522;SHT31;53349;53.538;8.584;2023-11-21T13:12:45;8.87;75.66
66522;SHT31;53349;53.538;8.584;2023-11-21T13:15:14;8.88;76.30
66522;SHT31;53349;53.538;8.584;2023-11-21T13:17:43;8.87;76.35
66522;SHT31;53349;53.538;8.584;2023-11-21T13:20:09;8.88;76.34
66522;SHT31;53349;53.538;8.584;2023-11-21T13:22:36;8.87;76.33
66522;SHT31;53349;53.538;8.584;2023-11-21T13:25:04;8.84;76.56
66522;SHT31;53349;53.538;8.584;2023-11-21T13:27:35;8.84;76.78
66522;SHT31;53349;53.538;8.584;2023-11-21T13:30:00;8.83;77.12
66522;SHT31;53349;53.538;8.584;2023-11-21T13:32:27;8.80;77.07
66522;SHT31;53349;53.538;8.584;2023-11-21T13:34:53;8.81;77.59
66522;SHT31;53349;53.538;8.584;2023-11-21T13:37:26;8.83;77.41
66522;SHT31;53349;53.538;8.584;2023-11-21T13:39:51;8.78;76.89
66522;SHT31;53349;53.538;8.584;2023-11-21T13:42:17;8.75;77.31
66522;SHT31;53349;53.538;8.584;2023-11-21T13:44:43;8.77;77.84
66522;SHT31;53349;53.538;8.584;2023-11-21T13:47:08;8.75;78.32
66522;SHT31;53349;53.538;8.584;2023-11-21T13:49:34;8.75;78.76
66522;SHT31;53349;53.538;8.584;2023-11-21T13:52:01;8.75;78.84
66522;SHT31;53349;53.538;8.584;2023-11-21T13:54:27;8.73;78.99
66522;SHT31;53349;53.538;8.584;2023-11-21T13:56:53;8.68;78.60
66522;SHT31;53349;53.538;8.584;2023-11-21T13:59:19;8.60;78.79
66522;SHT31;53349;53.538;8.584;2023-11-21T14:01:46;8.60;77.95
66522;SHT31;53349;53.538;8.584;2023-11-21T14:04:11;8.56;77.39
66522;SHT31;53349;53.538;8.584;2023-11-21T14:06:39;8.54;77.24
66522;SHT31;53349;53.538;8.584;2023-11-21T14:09:04;8.52;77.50
66522;SHT31;53349;53.538;8.584;2023-11-21T14:11:30;8.49;77.54
66522;SHT31;53349;53.538;8.584;2023-11-21T14:13:56;8.46;78.01
66522;SHT31;53349;53.538;8.584;2023-11-21T14:16:26;8.39;77.80
66522;SHT31;53349;53.538;8.584;2023-11-21T14:18:54;8.39;77.80
66522;SHT31;53349;53.538;8.584;2023-11-21T14:21:19;8.39;77.54
66522;SHT31;53349;53.538;8.584;2023-11-21T14:23:52;8.34;77.88
66522;SHT31;53349;53.538;8.584;2023-11-21T14:26:28;8.37;77.89
66522;SHT31;53349;53.538;8.584;2023-11-21T14:28:53;8.34;77.53
66522;SHT31;53349;53.538;8.584;2023-11-21T14:31:31;8.25;77.24
66522;SHT31;53349;53.538;8.584;2023-11-21T14:33:57;8.21;78.31
66522;SHT31;53349;53.538;8.584;2023-11-21T14:36:25;8.17;78.57
66522;SHT31;53349;53.538;8.584;2023-11-21T14:38:50;8.16;78.03
66522;SHT31;53349;53.538;8.584;2023-11-21T14:41:21;8.19;78.52
66522;SHT31;53349;53.538;8.584;2023-11-21T14:43:47;8.13;79.21
66522;SHT31;53349;53.538;8.584;2023-11-21T14:46:13;8.12;78.98
66522;SHT31;53349;53.538;8.584;2023-11-21T14:48:38;8.13;79.28
66522;SHT31;53349;53.538;8.584;2023-11-21T14:51:04;8.07;79.15
66522;SHT31;53349;53.538;8.584;2023-11-21T14:53:29;8.10;79.16
66522;SHT31;53349;53.538;8.584;2023-11-21T14:55:55;8.09;79.36
66522;SHT31;53349;53.538;8.584;2023-11-21T14:58:21;8.09;79.68
66522;SHT31;53349;53.538;8.584;2023-11-21T15:00:46;8.10;79.87
66522;SHT31;53349;53.538;8.584;2023-11-21T15:03:12;8.06;79.94
66522;SHT31;53349;53.538;8.584;2023-11-21T15:05:38;8.01;80.35
66522;SHT31;53349;53.538;8.584;2023-11-21T15:08:03;8.02;80.51
66522;SHT31;53349;53.538;8.584;2023-11-21T15:10:30;8.02;80.61
66522;SHT31;53349;53.538;8.584;2023-11-21T15:12:56;8.03;80.41
66522;SHT31;53349;53.538;8.584;2023-11-21T15:15:22;7.95;80.19
66522;SHT31;53349;53.538;8.584;2023-11-21T15:17:48;8.02;79.79
66522;SHT31;53349;53.538;8.584;2023-11-21T15:20:14;7.94;80.04
66522;SHT31;53349;53.538;8.584;2023-11-21T15:22:40;7.94;79.75
66522;SHT31;53349;53.538;8.584;2023-11-21T15:25:08;7.89;79.61
66522;SHT31;53349;53.538;8.584;2023-11-21T15:27:34;7.85;79.98
66522;SHT31;53349;53.538;8.584;2023-11-21T15:29:59;7.89;79.85
66522;SHT31;53349;53.538;8.584;2023-11-21T15:32:25;7.84;79.84
66522;SHT31;53349;53.538;8.584;2023-11-21T15:34:55;7.82;80.16
66522;SHT31;53349;53.538;8.584;2023-11-21T15:37:22;7.82;80.30
66522;SHT31;53349;53.538;8.584;2023-11-21T15:39:47;7.75;80.19
66522;SHT31;53349;53.538;8.584;2023-11-21T15:42:14;7.72;80.45
66522;SHT31;53349;53.538;8.584;2023-11-21T15:44:40;7.74;80.74
66522;SHT31;53349;53.538;8.584;2023-11-21T15:47:06;7.72;80.49
66522;SHT31;53349;53.538;8.584;2023-11-21T15:49:31;7.75;80.25
66522;SHT31;53349;53.538;8.584;2023-11-21T15:51:57;7.71;80.62
66522;SHT31;53349;53.538;8.584;2023-11-21T15:54:24;7.68;80.63
66522;SHT31;53349;53.538;8.584;2023-11-21T15:56:49;7.67;79.99
66522;SHT31;53349;53.538;8.584;2023-11-21T15:59:15;7.64;80.10